createdAt,value
2018-08-30T01:18:10.580Z,92.20
2018-08-30T01:20:12.646Z,92.60
2018-08-30T01:22:14.861Z,92.80
2018-08-30T01:24:16.949Z,93.20
2018-08-30T01:26:19.140Z,93.80
2018-08-30T01:28:21.242Z,93.70
2018-08-30T01:30:23.301Z,93.80
2018-08-30T01:32:25.358Z,93.90
2018-08-30T01:34:27.527Z,94.20
2018-08-30T01:36:29.643Z,94.00
2018-08-30T01:38:31.811Z,94.40
2018-08-30T01:40:33.937Z,94.20
2018-08-30T01:42:36.077Z,94.30
2018-08-30T01:44:38.217Z,94.80
2018-08-30T01:46:40.803Z,94.90
2018-08-30T01:48:42.992Z,94.60
2018-08-30T01:50:45.161Z,95.10
2018-08-30T01:52:47.313Z,95.10
2018-08-30T01:54:49.373Z,95.00
2018-08-30T01:56:51.538Z,95.00
2018-08-30T01:58:53.616Z,94.80
2018-08-30T02:00:55.792Z,95.20
2018-08-30T02:02:57.958Z,95.40
2018-08-30T02:05:00.034Z,95.30
2018-08-30T02:07:02.235Z,95.50
2018-08-30T02:09:05.042Z,95.40
2018-08-30T02:11:07.194Z,95.50
2018-08-30T02:13:09.518Z,95.70
2018-08-30T02:15:11.709Z,95.90
2018-08-30T02:17:14.058Z,95.90
2018-08-30T02:19:16.497Z,96.40
2018-08-30T02:21:19.033Z,96.10
2018-08-30T02:23:21.285Z,95.90
2018-08-30T02:25:23.433Z,96.20
2018-08-30T02:27:25.701Z,96.10
2018-08-30T02:29:28.029Z,96.30
2018-08-30T02:31:30.298Z,96.40
2018-08-30T02:33:32.930Z,96.10
2018-08-30T02:35:35.281Z,96.00
2018-08-30T02:37:37.704Z,96.50
2018-08-30T02:39:40.023Z,96.70
2018-08-30T02:41:42.737Z,96.60
2018-08-30T02:43:45.057Z,96.60
2018-08-30T02:45:47.381Z,96.80
2018-08-30T02:47:49.760Z,96.80
2018-08-30T02:49:52.370Z,96.80
2018-08-30T02:51:55.303Z,97.30
2018-08-30T02:53:58.399Z,96.50
2018-08-30T02:56:00.602Z,97.20
2018-08-30T02:58:02.894Z,96.70
2018-08-30T03:00:05.098Z,96.30
2018-08-30T03:02:07.812Z,96.90
2018-08-30T03:04:10.416Z,96.80
2018-08-30T03:06:13.094Z,96.90
2018-08-30T03:08:15.624Z,96.80
2018-08-30T03:10:17.863Z,96.90
2018-08-30T03:12:20.100Z,96.70
2018-08-30T03:14:22.172Z,96.80
2018-08-30T03:16:24.399Z,96.70
2018-08-30T03:18:26.533Z,96.40
2018-08-30T03:20:28.624Z,96.60
2018-08-30T03:22:30.744Z,96.70
2018-08-30T03:24:32.843Z,96.90
2018-08-30T03:26:34.934Z,96.70
2018-08-30T03:28:37.067Z,96.80
2018-08-30T03:30:39.372Z,96.70
2018-08-30T03:32:41.393Z,96.90
2018-08-30T03:34:43.527Z,96.80
2018-08-30T03:36:45.661Z,96.50
2018-08-30T03:38:47.851Z,96.60
2018-08-30T03:40:50.079Z,96.80
2018-08-30T03:42:52.203Z,96.50
2018-08-30T03:44:54.315Z,96.80
2018-08-30T03:46:56.433Z,96.70
2018-08-30T03:48:58.583Z,96.40
2018-08-30T03:51:00.661Z,97.10
2018-08-30T03:53:02.884Z,97.00
2018-08-30T03:55:05.040Z,97.00
2018-08-30T03:57:07.317Z,96.80
2018-08-30T03:59:09.520Z,96.50
2018-08-30T04:01:12.519Z,96.80
2018-08-30T04:03:14.835Z,96.90
2018-08-30T04:05:16.946Z,96.80
2018-08-30T04:07:19.030Z,96.80
2018-08-30T04:09:21.099Z,97.20
2018-08-30T04:11:23.206Z,97.10
2018-08-30T04:13:25.269Z,97.60
2018-08-30T04:15:27.373Z,97.20
2018-08-30T04:17:29.462Z,97.10
2018-08-30T04:19:31.538Z,97.30
2018-08-30T04:21:34.341Z,97.50
2018-08-30T04:23:36.426Z,97.50
2018-08-30T04:25:38.537Z,97.50
2018-08-30T04:27:40.617Z,97.50
2018-08-30T04:29:42.906Z,97.60
2018-08-30T04:31:45.167Z,97.50
2018-08-30T04:33:47.249Z,97.40
2018-08-30T04:35:49.393Z,97.30
2018-08-30T04:37:51.695Z,97.80
2018-08-30T04:39:53.834Z,97.60
2018-08-30T04:41:55.976Z,97.40
2018-08-30T04:43:58.073Z,97.80
2018-08-30T04:46:00.163Z,97.40
2018-08-30T04:48:02.549Z,97.40
2018-08-30T04:50:04.609Z,97.30
2018-08-30T04:52:06.630Z,97.30
2018-08-30T04:54:08.755Z,97.70
2018-08-30T04:56:10.846Z,97.40
2018-08-30T04:58:12.897Z,97.60
2018-08-30T05:00:14.988Z,97.90
2018-08-30T05:02:17.065Z,97.70
2018-08-30T05:04:19.198Z,97.40
2018-08-30T05:06:21.287Z,97.60
2018-08-30T05:08:24.208Z,97.40
2018-08-30T05:10:26.285Z,97.90
2018-08-30T05:12:28.417Z,97.70
2018-08-30T05:14:30.562Z,97.60
2018-08-30T05:16:32.679Z,97.50
2018-08-30T05:18:34.676Z,97.80
2018-08-30T05:20:36.868Z,97.90
2018-08-30T05:22:38.925Z,97.60
2018-08-30T05:24:41.027Z,97.60
2018-08-30T05:26:43.106Z,97.80
2018-08-30T05:28:45.181Z,97.90
2018-08-30T05:30:47.291Z,97.90
2018-08-30T05:32:49.378Z,97.90
2018-08-30T05:34:51.445Z,98.10
2018-08-30T05:36:53.521Z,98.00
2018-08-30T05:38:55.657Z,98.20
2018-08-30T05:40:57.738Z,98.00
2018-08-30T05:42:59.823Z,98.00
2018-08-30T05:45:01.945Z,98.00
2018-08-30T05:47:04.022Z,98.00
2018-08-30T05:49:06.153Z,98.20
2018-08-30T05:51:08.265Z,98.10
2018-08-30T05:53:10.349Z,98.00
2018-08-30T05:55:12.477Z,98.30
2018-08-30T05:57:14.562Z,98.10
2018-08-30T05:59:16.626Z,98.00
2018-08-30T06:01:18.713Z,97.90
2018-08-30T06:03:20.766Z,98.10
2018-08-30T06:05:22.825Z,98.20
2018-08-30T06:07:24.975Z,97.90
2018-08-30T06:09:27.105Z,98.40
2018-08-30T06:11:29.170Z,98.40
2018-08-30T06:13:31.241Z,98.30
2018-08-30T06:15:33.351Z,98.30
2018-08-30T06:17:35.453Z,98.70
2018-08-30T06:19:37.561Z,98.00
2018-08-30T06:21:39.647Z,97.90
2018-08-30T06:23:41.858Z,97.80
2018-08-30T06:25:43.945Z,97.80
2018-08-30T06:27:46.101Z,97.90
2018-08-30T06:29:48.202Z,97.60
2018-08-30T06:31:50.303Z,97.10
2018-08-30T06:33:52.341Z,96.70
2018-08-30T06:35:54.451Z,96.90
2018-08-30T06:37:56.538Z,97.00
2018-08-30T06:39:58.662Z,96.60
2018-08-30T06:42:00.717Z,96.70
2018-08-30T06:44:02.854Z,96.80
2018-08-30T06:46:05.005Z,96.80
2018-08-30T06:48:07.174Z,96.40
2018-08-30T06:50:09.243Z,97.00
2018-08-30T06:52:11.301Z,96.70
2018-08-30T06:54:13.441Z,96.70
2018-08-30T06:56:15.588Z,96.60
2018-08-30T06:58:17.659Z,96.60
2018-08-30T07:00:19.748Z,96.60
2018-08-30T07:02:21.841Z,96.10
2018-08-30T07:04:23.857Z,96.70
2018-08-30T07:06:25.930Z,96.80
2018-08-30T07:08:27.973Z,96.50
2018-08-30T07:10:30.023Z,96.20
2018-08-30T07:12:32.084Z,96.40
2018-08-30T07:14:34.155Z,96.00
2018-08-30T07:16:36.232Z,96.10
2018-08-30T07:18:38.280Z,96.40
2018-08-30T07:20:40.330Z,96.10
2018-08-30T07:22:42.466Z,96.10
2018-08-30T07:24:44.565Z,95.90
2018-08-30T07:26:46.626Z,96.20
2018-08-30T07:28:48.689Z,96.10
2018-08-30T07:30:50.765Z,96.10
2018-08-30T07:32:52.851Z,96.00
2018-08-30T07:34:55.017Z,96.40
2018-08-30T07:36:56.997Z,96.00
2018-08-30T07:38:59.100Z,96.10
2018-08-30T07:41:01.157Z,96.40
2018-08-30T07:43:03.237Z,96.50
2018-08-30T07:45:05.325Z,96.70
2018-08-30T07:47:07.429Z,96.70
2018-08-30T07:49:09.977Z,96.90
2018-08-30T07:51:14.085Z,96.80
2018-08-30T07:53:16.148Z,96.50
2018-08-30T07:55:18.201Z,96.40
2018-08-30T07:57:20.336Z,96.90
2018-08-30T07:59:22.355Z,96.40
2018-08-30T08:01:24.399Z,96.10
2018-08-30T08:03:26.492Z,96.20
2018-08-30T08:05:28.560Z,96.20
2018-08-30T08:07:30.665Z,95.80
2018-08-30T08:09:32.745Z,95.80
2018-08-30T08:11:34.832Z,95.30
2018-08-30T08:13:36.898Z,95.40
2018-08-30T08:15:38.960Z,95.50
2018-08-30T08:17:41.394Z,95.20
2018-08-30T08:19:43.465Z,94.90
2018-08-30T08:21:45.558Z,95.30
2018-08-30T08:23:47.669Z,95.00
2018-08-30T08:25:49.770Z,94.50
2018-08-30T08:27:51.809Z,95.40
2018-08-30T08:29:54.008Z,95.20
2018-08-30T08:31:56.310Z,95.10
2018-08-30T08:33:58.447Z,95.50
2018-08-30T08:36:00.529Z,94.30
2018-08-30T08:38:02.636Z,94.10
2018-08-30T08:40:05.137Z,94.10
2018-08-30T08:42:07.214Z,93.40
2018-08-30T08:44:09.536Z,94.00
2018-08-30T08:46:11.657Z,93.40
2018-08-30T08:48:13.764Z,93.60
2018-08-30T08:50:15.842Z,93.40
2018-08-30T08:52:17.898Z,93.40
2018-08-30T08:54:20.018Z,93.30
2018-08-30T08:56:22.107Z,92.60
2018-08-30T08:58:24.195Z,92.80
2018-08-30T09:00:26.317Z,92.10
2018-08-30T09:02:28.402Z,91.90
2018-08-30T09:04:30.466Z,92.20
2018-08-30T09:06:32.648Z,92.60
2018-08-30T09:08:34.690Z,92.10
2018-08-30T09:10:36.761Z,91.50
2018-08-30T09:12:38.885Z,92.60
2018-08-30T09:14:40.964Z,92.10
2018-08-30T09:16:43.030Z,91.90
2018-08-30T09:18:45.085Z,92.00
2018-08-30T09:20:47.165Z,91.30
2018-08-30T09:22:49.262Z,91.00
2018-08-30T09:24:51.366Z,90.40
2018-08-30T09:26:53.516Z,90.50
2018-08-30T09:28:55.640Z,90.50
2018-08-30T09:30:57.764Z,90.00
2018-08-30T09:32:59.845Z,89.70
2018-08-30T09:35:01.940Z,88.50
2018-08-30T09:37:04.037Z,86.70
2018-08-30T09:39:06.478Z,87.70
2018-08-30T09:41:08.626Z,88.30
2018-08-30T09:43:10.701Z,84.80
2018-08-30T09:45:12.801Z,85.50
2018-08-30T09:47:14.923Z,84.40
2018-08-30T09:49:17.008Z,84.60
2018-08-30T09:51:19.405Z,86.80
2018-08-30T09:53:21.457Z,89.40
2018-08-30T09:55:23.541Z,89.70
2018-08-30T09:57:25.655Z,90.90
2018-08-30T09:59:27.668Z,91.30
2018-08-30T10:01:35.586Z,91.70
2018-08-30T10:03:37.688Z,91.40
2018-08-30T10:05:39.723Z,92.40
2018-08-30T10:07:41.789Z,91.40
2018-08-30T10:09:43.869Z,91.30
2018-08-30T10:11:45.985Z,91.60
2018-08-30T10:13:48.045Z,91.80
2018-08-30T10:15:50.150Z,91.10
2018-08-30T10:17:52.292Z,90.20
2018-08-30T10:22:27.305Z,89.10
2018-08-30T10:24:29.407Z,90.20
2018-08-30T10:26:31.493Z,88.70
2018-08-30T10:28:33.553Z,90.60
2018-08-30T10:30:35.658Z,88.80
2018-08-30T10:32:37.775Z,87.00
2018-08-30T10:34:39.939Z,86.90
2018-08-30T10:36:42.069Z,85.00
2018-08-30T10:38:44.294Z,84.40
2018-08-30T10:40:46.462Z,85.30
2018-08-30T10:42:48.648Z,82.30
2018-08-30T10:44:50.776Z,80.10
2018-08-30T10:46:52.835Z,78.20
2018-08-30T10:48:54.936Z,71.60
2018-08-30T10:50:57.024Z,68.70
2018-08-30T10:52:59.069Z,64.20
2018-08-30T10:55:01.153Z,64.10
2018-08-30T10:57:03.225Z,62.00
2018-08-30T10:59:05.284Z,61.30
2018-08-30T11:01:07.440Z,65.10
2018-08-30T11:03:09.567Z,65.50
2018-08-30T11:05:11.660Z,67.90
2018-08-30T11:07:13.721Z,70.30
2018-08-30T11:09:15.807Z,64.70
2018-08-30T11:11:17.866Z,63.70
2018-08-30T11:13:20.008Z,60.40
2018-08-30T11:15:22.456Z,56.80
2018-08-30T11:17:25.093Z,51.20
2018-08-30T11:19:27.258Z,48.40
2018-08-30T11:21:29.314Z,43.90
2018-08-30T11:23:31.392Z,45.00
2018-08-30T11:25:33.893Z,44.70
2018-08-30T11:27:36.149Z,45.10
2018-08-30T11:29:38.265Z,42.20
2018-08-30T11:31:40.322Z,44.40
2018-08-30T11:33:42.393Z,40.00
2018-08-30T11:35:44.469Z,39.60
2018-08-30T11:37:46.658Z,40.30
2018-08-30T11:39:48.617Z,34.50
2018-08-30T11:41:50.800Z,32.80
2018-08-30T11:43:52.829Z,30.60
2018-08-30T11:45:54.995Z,27.50
2018-08-30T11:47:57.062Z,24.80
2018-08-30T11:49:59.149Z,28.40
2018-08-30T11:52:01.229Z,23.80
2018-08-30T11:54:03.343Z,22.90
2018-08-30T11:56:05.385Z,24.40
2018-08-30T11:58:07.473Z,27.50
2018-08-30T12:00:09.521Z,26.50
2018-08-30T12:02:11.598Z,26.10
2018-08-30T12:04:13.697Z,25.20
2018-08-30T12:06:15.782Z,24.30
2018-08-30T12:08:17.885Z,23.50
2018-08-30T12:10:20.067Z,24.30
2018-08-30T12:12:21.960Z,26.60
2018-08-30T12:14:30.118Z,28.90
2018-08-30T12:16:36.787Z,32.30
2018-08-30T12:18:48.398Z,34.60
2018-08-30T12:20:56.742Z,40.30
2018-08-30T12:23:03.208Z,47.90
2018-08-30T12:25:08.468Z,56.10
2018-08-30T12:27:18.081Z,60.10
2018-08-30T12:29:24.079Z,63.70
2018-08-30T12:31:34.379Z,67.50
2018-08-30T12:33:40.557Z,65.10
2018-08-30T12:35:49.420Z,64.30
2018-08-30T12:37:54.895Z,62.20
2018-08-30T12:39:59.137Z,61.80
2018-08-30T12:42:05.367Z,61.20
2018-08-30T12:44:09.279Z,60.60
2018-08-30T12:46:17.383Z,61.80
2018-08-30T12:48:24.174Z,59.90
2018-08-30T12:50:30.619Z,60.20
2018-08-30T12:52:40.545Z,56.50
2018-08-30T12:54:55.969Z,50.20
2018-08-30T12:59:22.599Z,41.80
2018-08-30T13:01:29.268Z,40.60
2018-08-30T13:03:44.524Z,43.80
2018-08-30T13:05:51.725Z,42.60
2018-08-30T13:07:56.460Z,42.80
2018-08-30T13:10:07.930Z,41.70
2018-08-30T13:12:16.514Z,44.20
2018-08-30T13:14:24.089Z,46.30
2018-08-30T13:16:29.064Z,43.50
2018-08-30T13:18:34.165Z,47.50
2018-08-30T13:20:43.323Z,53.60
2018-08-30T13:22:52.776Z,56.80
2018-08-30T13:25:11.511Z,65.10
2018-08-30T13:27:15.849Z,85.50
2018-08-30T13:29:34.935Z,87.20
2018-08-30T13:33:56.767Z,91.30
2018-08-30T13:36:03.308Z,92.70
2018-08-30T13:38:15.487Z,93.00
2018-08-30T13:40:20.736Z,92.90
2018-08-30T13:42:26.642Z,93.40
2018-08-30T13:44:32.743Z,93.20
2018-08-30T13:46:40.368Z,94.60
2018-08-30T13:48:43.507Z,94.60
2018-08-30T13:50:46.106Z,95.20
2018-08-30T13:52:48.751Z,94.40
2018-08-30T13:54:50.909Z,93.90
2018-08-30T13:56:53.083Z,93.30
2018-08-30T13:58:55.151Z,94.30
2018-08-30T14:00:57.303Z,94.70
2018-08-30T14:02:59.074Z,94.70
2018-08-30T14:05:01.179Z,94.80
2018-08-30T14:07:03.318Z,94.70
2018-08-30T14:09:05.413Z,95.40
2018-08-30T14:11:07.602Z,94.60
2018-08-30T14:13:09.586Z,94.80
2018-08-30T14:15:11.820Z,93.80
2018-08-30T14:17:13.509Z,94.70
2018-08-30T14:19:15.756Z,95.50
2018-08-30T14:21:17.777Z,95.30
2018-08-30T14:23:19.863Z,94.40
2018-08-30T14:25:21.957Z,93.00
2018-08-30T14:27:24.229Z,92.60
2018-08-30T14:29:26.297Z,91.30
2018-08-30T14:31:28.405Z,93.00
2018-08-30T14:33:30.470Z,92.90
2018-08-30T14:35:32.561Z,92.60
2018-08-30T14:37:34.757Z,93.60
2018-08-30T14:39:36.788Z,94.10
2018-08-30T14:41:39.321Z,93.60
2018-08-30T14:43:41.337Z,94.20
2018-08-30T14:45:43.558Z,94.30
2018-08-30T14:47:45.607Z,93.60
2018-08-30T14:49:47.633Z,93.90
2018-08-30T14:51:49.871Z,94.20
2018-08-30T14:53:52.356Z,94.60
2018-08-30T14:55:54.149Z,94.20
2018-08-30T14:57:56.120Z,94.50
2018-08-30T14:59:58.228Z,94.60
2018-08-30T15:02:00.388Z,95.10
2018-08-30T15:04:02.507Z,95.00
2018-08-30T15:06:04.774Z,95.00
2018-08-30T15:08:06.701Z,95.30
2018-08-30T15:10:08.769Z,95.90
2018-08-30T15:12:10.899Z,96.00
2018-08-30T15:14:12.930Z,96.30
2018-08-30T15:16:15.604Z,96.30
2018-08-30T15:18:17.685Z,97.20
2018-08-30T15:20:19.749Z,97.30
2018-08-30T15:22:21.816Z,97.80
2018-08-30T15:24:23.973Z,97.60
2018-08-30T15:26:26.037Z,98.20
2018-08-30T15:28:28.140Z,97.90
2018-08-30T15:30:30.214Z,97.70
2018-08-30T15:32:32.336Z,97.80
2018-08-30T15:34:34.421Z,97.70
2018-08-30T15:36:36.492Z,97.70
2018-08-30T15:38:38.567Z,97.50
2018-08-30T15:40:41.626Z,97.80
2018-08-30T15:42:43.896Z,97.20
2018-08-30T15:44:45.794Z,97.70
2018-08-30T15:46:47.906Z,97.20
2018-08-30T15:48:50.419Z,97.40
2018-08-30T15:50:52.467Z,97.70
2018-08-30T15:52:54.539Z,97.40
2018-08-30T15:54:56.600Z,96.90
2018-08-30T15:56:58.725Z,97.40
2018-08-30T15:59:00.741Z,97.00
2018-08-30T16:01:02.789Z,96.90
2018-08-30T16:03:05.017Z,96.90
2018-08-30T16:05:07.109Z,97.00
2018-08-30T16:07:09.137Z,96.90
2018-08-30T16:09:12.235Z,97.00
2018-08-30T16:11:14.402Z,96.90
2018-08-30T16:13:16.407Z,96.60
2018-08-30T16:15:18.494Z,96.90
2018-08-30T16:17:20.702Z,96.10
2018-08-30T16:19:22.677Z,96.50
2018-08-30T16:21:24.769Z,96.70
2018-08-30T16:23:29.165Z,96.50
2018-08-30T16:25:33.350Z,96.00
2018-08-30T16:27:35.550Z,96.80
2018-08-30T16:29:37.642Z,96.30
2018-08-30T16:31:39.794Z,95.90
2018-08-30T16:33:41.880Z,95.70
2018-08-30T16:35:43.977Z,95.40
2018-08-30T16:37:46.158Z,96.10
2018-08-30T16:39:48.294Z,96.40
2018-08-30T16:41:50.338Z,96.60
2018-08-30T16:43:52.441Z,96.20
2018-08-30T16:45:54.520Z,95.90
2018-08-30T16:47:56.621Z,96.20
2018-08-30T16:49:59.166Z,95.30
2018-08-30T16:52:01.237Z,95.20
2018-08-30T16:54:03.365Z,94.80
2018-08-30T16:56:05.465Z,94.90
2018-08-30T16:58:07.519Z,94.70
2018-08-30T17:00:09.592Z,94.90
2018-08-30T17:02:11.707Z,95.50
2018-08-30T17:04:13.749Z,95.60
2018-08-30T17:06:15.840Z,95.90
2018-08-30T17:08:17.932Z,95.70
2018-08-30T17:10:20.052Z,94.00
2018-08-30T17:12:22.266Z,92.00
2018-08-30T17:14:24.307Z,92.80
2018-08-30T17:16:26.445Z,90.60
2018-08-30T17:18:28.477Z,90.10
2018-08-30T17:20:35.916Z,90.80
2018-08-30T17:22:38.277Z,90.40
2018-08-30T17:24:40.369Z,91.30
2018-08-30T17:26:42.772Z,90.30
2018-08-30T17:28:44.844Z,91.40
2018-08-30T17:30:46.933Z,90.00
2018-08-30T17:32:49.045Z,87.50
2018-08-30T17:34:51.155Z,89.70
2018-08-30T17:36:53.227Z,88.50
2018-08-30T17:38:55.318Z,91.60
2018-08-30T17:40:57.468Z,91.00
2018-08-30T17:42:59.652Z,90.00
2018-08-30T17:45:01.830Z,88.70
2018-08-30T17:47:03.977Z,90.50
2018-08-30T17:49:06.057Z,90.70
2018-08-30T17:51:08.279Z,88.70
2018-08-30T17:53:10.372Z,84.20
2018-08-30T17:55:12.590Z,82.10
2018-08-30T17:57:14.685Z,82.90
2018-08-30T17:59:16.766Z,83.90
2018-08-30T18:01:18.889Z,78.30
2018-08-30T18:03:21.002Z,80.90
2018-08-30T18:05:23.257Z,84.40
2018-08-30T18:07:25.418Z,82.50
2018-08-30T18:09:27.505Z,88.40
2018-08-30T18:11:29.577Z,82.30
2018-08-30T18:13:31.659Z,77.40
2018-08-30T18:15:33.778Z,79.40
2018-08-30T18:17:36.093Z,75.00
2018-08-30T18:24:55.404Z,74.60
2018-08-30T18:26:59.247Z,74.60
2018-08-30T18:29:03.395Z,75.40
2018-08-30T18:31:07.231Z,79.40
2018-08-30T18:33:11.780Z,75.50
2018-08-30T18:35:16.652Z,76.80
2018-08-30T18:37:23.989Z,76.80
2018-08-30T18:39:28.519Z,76.10
2018-08-30T18:41:35.870Z,71.40
2018-08-30T18:43:38.290Z,68.70
2018-08-30T18:45:40.371Z,70.20
2018-08-30T18:47:42.435Z,74.30
2018-08-30T18:49:44.512Z,70.60
2018-08-30T18:51:46.601Z,69.30
2018-08-30T18:53:48.678Z,69.40
2018-08-30T18:55:50.761Z,72.40
2018-08-30T18:57:52.829Z,72.40
2018-08-30T18:59:54.909Z,73.10
2018-08-30T19:01:57.030Z,68.60
2018-08-30T19:03:59.190Z,70.80
2018-08-30T19:06:01.489Z,71.70
2018-08-30T19:08:03.584Z,67.40
2018-08-30T19:10:05.965Z,67.30
2018-08-30T19:12:08.066Z,70.10
2018-08-30T19:14:10.438Z,69.90
2018-08-30T19:16:18.246Z,72.00
2018-08-30T19:18:26.125Z,72.10
2018-08-30T19:20:28.224Z,72.50
2018-08-30T19:22:30.228Z,73.80
2018-08-30T19:24:38.114Z,73.80
2018-08-30T19:26:40.190Z,75.60
2018-08-30T19:28:42.277Z,76.10
2018-08-30T19:30:44.451Z,77.40
2018-08-30T19:32:46.585Z,78.60
2018-08-30T19:34:48.893Z,77.00
2018-08-30T19:36:50.964Z,79.00
2018-08-30T19:38:53.053Z,77.50
2018-08-30T19:41:00.897Z,77.70
2018-08-30T19:43:02.953Z,78.70
2018-08-30T19:45:05.092Z,78.60
2018-08-30T19:47:07.257Z,78.20
2018-08-30T19:49:09.322Z,78.10
2018-08-30T19:51:11.502Z,79.30
2018-08-30T19:53:13.726Z,78.80
2018-08-30T19:55:15.843Z,78.60
2018-08-30T19:57:17.966Z,79.80
2018-08-30T19:59:20.272Z,78.70
2018-08-30T20:01:22.361Z,81.80
2018-08-30T20:03:24.602Z,80.40
2018-08-30T20:05:26.730Z,77.10
2018-08-30T20:07:28.882Z,78.10
2018-08-30T20:09:30.909Z,80.80
2018-08-30T20:11:32.949Z,81.00
2018-08-30T20:13:35.030Z,79.90
2018-08-30T20:15:37.104Z,81.40
2018-08-30T20:17:39.172Z,82.50
2018-08-30T20:19:41.263Z,81.70
2018-08-30T20:21:43.321Z,81.50
2018-08-30T20:23:45.397Z,81.90
2018-08-30T20:25:47.437Z,82.80
2018-08-30T20:27:53.044Z,82.80
2018-08-30T20:29:55.719Z,83.50
2018-08-30T20:31:57.894Z,82.90
2018-08-30T20:34:00.017Z,83.30
2018-08-30T20:36:02.201Z,85.60
2018-08-30T20:38:04.309Z,84.30
2018-08-30T20:40:06.380Z,85.50
2018-08-30T20:42:08.477Z,85.10
2018-08-30T20:44:10.562Z,87.00
2018-08-30T20:46:12.647Z,86.30
2018-08-30T20:48:14.849Z,84.90
2018-08-30T20:50:16.925Z,86.10
2018-08-30T20:52:19.023Z,85.30
2018-08-30T20:54:21.176Z,84.90
2018-08-30T20:56:23.272Z,85.70
2018-08-30T20:58:25.333Z,85.60
2018-08-30T21:00:27.555Z,86.00
2018-08-30T21:02:29.429Z,83.50
2018-08-30T21:04:31.488Z,84.20
2018-08-30T21:06:33.581Z,86.10
2018-08-30T21:08:35.637Z,85.90
2018-08-30T21:10:37.700Z,84.00
2018-08-30T21:12:39.752Z,85.40
2018-08-30T21:14:41.786Z,85.50
2018-08-30T21:16:43.812Z,85.80
2018-08-30T21:18:45.867Z,86.30
2018-08-30T21:20:47.961Z,85.90
2018-08-30T21:22:49.993Z,85.90
2018-08-30T21:24:52.054Z,86.40
2018-08-30T21:26:54.128Z,83.90
2018-08-30T21:28:56.232Z,86.20
2018-08-30T21:30:58.261Z,86.60
2018-08-30T21:33:00.320Z,85.70
2018-08-30T21:35:02.352Z,86.60
2018-08-30T21:37:04.392Z,85.90
2018-08-30T21:39:07.519Z,86.40
2018-08-30T21:41:09.555Z,87.10
2018-08-30T21:43:11.621Z,86.40
2018-08-30T21:45:15.729Z,87.90
2018-08-30T21:47:17.789Z,87.40
2018-08-30T21:49:19.886Z,86.40
2018-08-30T21:51:21.972Z,86.60
2018-08-30T21:53:24.021Z,87.70
2018-08-30T21:55:26.107Z,87.50
2018-08-30T21:57:28.181Z,86.20
2018-08-30T21:59:30.263Z,86.80
2018-08-30T22:01:32.325Z,88.70
2018-08-30T22:03:34.367Z,88.20
2018-08-30T22:05:36.517Z,87.90
2018-08-30T22:07:38.586Z,88.80
2018-08-30T22:09:40.633Z,88.40
2018-08-30T22:11:42.909Z,86.50
2018-08-30T22:13:44.970Z,86.10
2018-08-30T22:15:47.019Z,87.40
2018-08-30T22:17:49.091Z,88.60
2018-08-30T22:19:51.188Z,89.20
2018-08-30T22:21:53.229Z,89.50
2018-08-30T22:23:55.280Z,89.40
2018-08-30T22:25:57.383Z,90.20
2018-08-30T22:27:59.453Z,90.20
2018-08-30T22:30:01.550Z,90.20
2018-08-30T22:32:03.601Z,91.00
2018-08-30T22:34:05.705Z,90.10
2018-08-30T22:36:07.805Z,90.20
2018-08-30T22:38:09.877Z,90.10
2018-08-30T22:40:11.991Z,90.20
2018-08-30T22:42:14.045Z,90.30
2018-08-30T22:44:16.121Z,90.80
2018-08-30T22:46:18.181Z,90.70
2018-08-30T22:48:20.302Z,90.70
2018-08-30T22:50:22.346Z,91.10
2018-08-30T22:52:24.469Z,90.80
2018-08-30T22:54:26.532Z,90.80
2018-08-30T22:56:28.605Z,91.40
2018-08-30T22:58:30.781Z,91.00
2018-08-30T23:00:32.832Z,90.50
2018-08-30T23:02:34.892Z,90.90
2018-08-30T23:04:36.933Z,90.00
2018-08-30T23:06:38.992Z,90.00
2018-08-30T23:08:41.056Z,90.00
2018-08-30T23:10:43.121Z,90.70
2018-08-30T23:12:45.181Z,90.30
2018-08-30T23:14:47.246Z,90.90
2018-08-30T23:16:49.294Z,90.60
2018-08-30T23:18:51.374Z,90.80
2018-08-30T23:20:53.465Z,91.00
2018-08-30T23:22:55.561Z,91.10
2018-08-30T23:24:57.669Z,90.90
2018-08-30T23:26:59.738Z,91.10
2018-08-30T23:29:01.845Z,91.20
2018-08-30T23:31:04.293Z,91.00
2018-08-30T23:33:06.353Z,91.10
2018-08-30T23:35:08.434Z,91.80
2018-08-30T23:37:10.532Z,91.80
2018-08-30T23:39:12.581Z,91.90
2018-08-30T23:41:14.708Z,91.60
2018-08-30T23:43:16.766Z,91.60
2018-08-30T23:45:18.861Z,91.80
2018-08-30T23:47:21.165Z,91.40
2018-08-30T23:49:23.240Z,91.10
2018-08-30T23:51:25.344Z,91.10
2018-08-30T23:53:27.437Z,90.00
2018-08-30T23:55:29.505Z,87.70
2018-08-30T23:57:31.569Z,89.30
2018-08-30T23:59:45.328Z,90.20
